Time;durP1;ratioP1;P1;durP2;ratioP2;P2;SDS_P1;SDS_P2;PMS_P1;PMS_P2;Temp;Humidity;BMP_temperature;BMP_pressure;BME280_temperature;BME280_humidity;BME280_pressure;Samples;Min_cycle;Max_cycle;Signal;HPM_P1;HPM_P2
2022/11/06 00:01:25;;;;;;;15.30;6.90;;;;;;;;;;5053517;28;20033;-78
2022/11/06 00:03:52;;;;;;;17.10;6.85;;;;;;;;;;5037189;28;20127;-77
2022/11/06 00:09:04;;;;;;;25.00;6.38;;;;;;;;;;5071008;28;20093;-78
2022/11/06 00:11:30;;;;;;;12.80;5.90;;;;;;;;;;5075470;28;20043;-78
2022/11/06 00:13:56;;;;;;;14.57;6.30;;;;;;;;;;5077343;28;20052;-76
2022/11/06 00:16:22;;;;;;;18.23;6.07;;;;;;;;;;5077118;28;20017;-79
2022/11/06 00:18:49;;;;;;;16.90;6.30;;;;;;;;;;5077433;28;20036;-77
2022/11/06 00:21:17;;;;;;;15.02;5.63;;;;;;;;;;5059648;28;20063;-79
2022/11/06 00:23:43;;;;;;;17.83;5.85;;;;;;;;;;5076872;28;20025;-78
2022/11/06 00:26:10;;;;;;;23.00;5.75;;;;;;;;;;5074194;28;20045;-78
2022/11/06 00:28:36;;;;;;;14.65;5.80;;;;;;;;;;5069477;28;20033;-78
2022/11/06 00:31:09;;;;;;;11.48;5.07;;;;;;;;;;5068914;28;20025;-76
2022/11/06 00:33:35;;;;;;;17.92;5.35;;;;;;;;;;5068422;28;20108;-75
2022/11/06 00:36:02;;;;;;;14.25;5.47;;;;;;;;;;5074659;28;20021;-77
2022/11/06 00:38:28;;;;;;;16.00;6.30;;;;;;;;;;5057189;28;20036;-76
2022/11/06 00:40:54;;;;;;;14.57;6.00;;;;;;;;;;5055412;28;20197;-78
2022/11/06 00:43:20;;;;;;;16.15;5.38;;;;;;;;;;5054734;28;20029;-77
2022/11/06 00:45:46;;;;;;;12.93;5.55;;;;;;;;;;5035635;28;20028;-78
2022/11/06 00:48:12;;;;;;;15.30;4.72;;;;;;;;;;5054983;28;20017;-78
2022/11/06 00:50:38;;;;;;;18.92;5.50;;;;;;;;;;5054296;28;20636;-78
2022/11/06 00:53:04;;;;;;;18.63;6.18;;;;;;;;;;5054948;28;20062;-76
2022/11/06 00:55:30;;;;;;;18.83;5.03;;;;;;;;;;5053336;28;20108;-76
2022/11/06 00:57:57;;;;;;;10.95;5.05;;;;;;;;;;5036227;28;20095;-76
2022/11/06 01:00:23;;;;;;;18.13;5.40;;;;;;;;;;5053961;28;20025;-76
2022/11/06 01:02:49;;;;;;;14.68;4.97;;;;;;;;;;5057633;28;20148;-76
2022/11/06 01:05:15;;;;;;;13.68;4.85;;;;;;;;;;5057634;28;20029;-76
2022/11/06 01:07:41;;;;;;;14.15;5.03;;;;;;;;;;5056497;28;20300;-76
2022/11/06 01:10:07;;;;;;;18.23;5.30;;;;;;;;;;5038295;28;20052;-76
2022/11/06 01:12:34;;;;;;;19.98;5.32;;;;;;;;;;5057226;28;20354;-77
2022/11/06 01:15:00;;;;;;;14.23;4.80;;;;;;;;;;5057798;28;20378;-76
2022/11/06 01:17:27;;;;;;;15.70;4.72;;;;;;;;;;5060182;28;20419;-76
2022/11/06 01:19:53;;;;;;;13.88;5.63;;;;;;;;;;5058581;28;20113;-78
2022/11/06 01:22:19;;;;;;;26.50;5.95;;;;;;;;;;5043999;28;20052;-76
2022/11/06 01:24:45;;;;;;;14.43;5.88;;;;;;;;;;5084554;22;20033;-75
2022/11/06 01:27:11;;;;;;;16.00;5.35;;;;;;;;;;5074833;28;20051;-75
2022/11/06 01:29:37;;;;;;;13.02;4.97;;;;;;;;;;5075212;28;20067;-74
2022/11/06 01:32:03;;;;;;;14.02;4.55;;;;;;;;;;5074739;28;20025;-75
2022/11/06 01:34:29;;;;;;;12.15;4.82;;;;;;;;;;5075068;28;20475;-75
2022/11/06 01:36:55;;;;;;;15.70;5.88;;;;;;;;;;5075233;28;20024;-75
2022/11/06 01:39:21;;;;;;;13.20;5.28;;;;;;;;;;5075696;28;20032;-74
2022/11/06 01:41:48;;;;;;;15.80;5.05;;;;;;;;;;5075753;28;20036;-74
2022/11/06 01:44:49;;;;;;;22.02;5.40;;;;;;;;;;5075044;28;20029;-73
2022/11/06 01:47:18;;;;;;;12.30;5.20;;;;;;;;;;5074386;28;20043;-75
2022/11/06 01:49:45;;;;;;;14.40;5.07;;;;;;;;;;5074807;28;20182;-72
2022/11/06 01:52:11;;;;;;;16.73;5.35;;;;;;;;;;5074876;28;20028;-74
2022/11/06 01:54:39;;;;;;;12.75;5.32;;;;;;;;;;5074027;28;20031;-74
2022/11/06 01:57:05;;;;;;;14.52;5.30;;;;;;;;;;5077143;28;20044;-72
2022/11/06 01:59:32;;;;;;;15.98;5.45;;;;;;;;;;5087081;28;20032;-73
2022/11/06 02:01:58;;;;;;;17.30;5.20;;;;;;;;;;5086936;28;20025;-75
2022/11/06 02:04:25;;;;;;;19.20;5.28;;;;;;;;;;5076743;28;20029;-75
2022/11/06 02:06:51;;;;;;;17.80;5.47;;;;;;;;;;5085612;28;20032;-74
2022/11/06 02:09:18;;;;;;;11.10;4.75;;;;;;;;;;5086699;28;20043;-72
2022/11/06 02:11:46;;;;;;;16.45;5.78;;;;;;;;;;5076237;28;20025;-73
2022/11/06 02:14:21;;;;;;;18.85;5.75;;;;;;;;;;5076808;28;20050;-74
2022/11/06 02:17:05;;;;;;;20.30;5.43;;;;;;;;;;5081523;28;20465;-73
2022/11/06 02:19:35;;;;;;;12.50;5.32;;;;;;;;;;5075303;28;20071;-74
2022/11/06 02:22:16;;;;;;;14.35;5.60;;;;;;;;;;5075833;28;20052;-75
2022/11/06 02:24:52;;;;;;;15.77;5.20;;;;;;;;;;5073664;28;20032;-75
2022/11/06 02:27:19;;;;;;;14.48;5.22;;;;;;;;;;5074125;28;20397;-74
2022/11/06 02:30:00;;;;;;;14.13;5.25;;;;;;;;;;5074721;28;20032;-75
2022/11/06 02:32:41;;;;;;;16.45;6.03;;;;;;;;;;5074728;28;20032;-74
2022/11/06 02:35:13;;;;;;;12.45;6.05;;;;;;;;;;5074321;28;20024;-74
2022/11/06 02:37:41;;;;;;;14.93;5.43;;;;;;;;;;5076324;28;20025;-75
2022/11/06 02:40:09;;;;;;;13.73;5.20;;;;;;;;;;5076598;28;20350;-75
2022/11/06 02:42:37;;;;;;;18.42;5.70;;;;;;;;;;5075663;28;20046;-75
2022/11/06 02:45:04;;;;;;;17.95;5.95;;;;;;;;;;5073443;28;20024;-74
2022/11/06 02:47:32;;;;;;;11.43;5.18;;;;;;;;;;5074240;28;20497;-76
2022/11/06 02:50:04;;;;;;;13.63;5.43;;;;;;;;;;5073281;28;20032;-76
2022/11/06 02:52:33;;;;;;;17.75;5.85;;;;;;;;;;5073453;28;20055;-75
2022/11/06 02:55:04;;;;;;;12.60;5.50;;;;;;;;;;5073194;28;20104;-75
2022/11/06 02:57:34;;;;;;;17.27;5.40;;;;;;;;;;5073094;28;20016;-75
2022/11/06 03:00:03;;;;;;;16.27;5.63;;;;;;;;;;5071714;28;20071;-75
2022/11/06 03:02:32;;;;;;;15.43;5.75;;;;;;;;;;5073195;28;20028;-75
2022/11/06 03:05:02;;;;;;;17.38;5.32;;;;;;;;;;5085456;28;20064;-74
2022/11/06 03:07:48;;;;;;;18.00;5.50;;;;;;;;;;5087527;28;20039;-74
2022/11/06 03:10:14;;;;;;;11.63;4.78;;;;;;;;;;5083416;28;20024;-71
2022/11/06 03:12:49;;;;;;;19.45;6.07;;;;;;;;;;5090802;28;20023;-72
2022/11/06 03:15:20;;;;;;;11.57;5.43;;;;;;;;;;5095306;28;20088;-75
2022/11/06 03:17:49;;;;;;;16.13;6.13;;;;;;;;;;5073142;28;20020;-74
2022/11/06 03:20:35;;;;;;;15.20;5.40;;;;;;;;;;5073916;28;20121;-74
2022/11/06 03:23:18;;;;;;;18.98;6.97;;;;;;;;;;5073771;28;20032;-74
2022/11/06 03:25:50;;;;;;;14.93;5.93;;;;;;;;;;5074452;28;20041;-74
2022/11/06 03:28:16;;;;;;;14.93;5.30;;;;;;;;;;5074326;28;20047;-75
2022/11/06 03:30:45;;;;;;;25.23;5.93;;;;;;;;;;5074130;28;20029;-75
2022/11/06 03:33:20;;;;;;;12.65;5.05;;;;;;;;;;5071515;28;20024;-76
2022/11/06 03:35:56;;;;;;;14.02;5.72;;;;;;;;;;5072635;28;20039;-75
2022/11/06 03:38:24;;;;;;;12.85;5.68;;;;;;;;;;5072938;28;20601;-75
2022/11/06 03:40:52;;;;;;;14.35;5.43;;;;;;;;;;5073321;28;20484;-75
2022/11/06 03:43:20;;;;;;;15.43;5.78;;;;;;;;;;5071902;28;20033;-73
2022/11/06 03:45:47;;;;;;;18.10;5.20;;;;;;;;;;5072944;28;20025;-76
2022/11/06 03:48:13;;;;;;;12.35;5.60;;;;;;;;;;5071675;28;20474;-74
2022/11/06 03:50:44;;;;;;;18.88;5.68;;;;;;;;;;5074324;28;20035;-76
2022/11/06 03:53:29;;;;;;;15.93;5.70;;;;;;;;;;5073551;28;20025;-73
2022/11/06 03:55:59;;;;;;;18.60;5.72;;;;;;;;;;5073184;28;20020;-75
2022/11/06 03:58:27;;;;;;;16.83;6.00;;;;;;;;;;5071966;28;20115;-75
2022/11/06 04:00:54;;;;;;;15.55;5.40;;;;;;;;;;5073560;28;20039;-75
2022/11/06 04:03:23;;;;;;;14.25;5.35;;;;;;;;;;5073365;28;20024;-75
2022/11/06 04:06:08;;;;;;;13.65;4.78;;;;;;;;;;5072585;28;20100;-74
2022/11/06 04:14:07;;;;;;;15.52;5.88;;;;;;;;;;5074280;28;20088;-73
2022/11/06 04:16:34;;;;;;;16.58;5.63;;;;;;;;;;5073455;28;20042;-74
2022/11/06 04:19:01;;;;;;;15.73;5.50;;;;;;;;;;5073324;28;20035;-73
2022/11/06 04:21:36;;;;;;;13.13;5.45;;;;;;;;;;5072484;28;20359;-75
2022/11/06 04:26:58;;;;;;;16.55;4.93;;;;;;;;;;5072366;28;19957;-74
2022/11/06 04:29:31;;;;;;;19.42;5.45;;;;;;;;;;5074013;28;20120;-71
2022/11/06 04:32:00;;;;;;;14.65;5.43;;;;;;;;;;5082568;28;20017;-74
2022/11/06 04:34:26;;;;;;;11.10;4.90;;;;;;;;;;5072782;28;20088;-76
2022/11/06 04:37:14;;;;;;;12.88;4.97;;;;;;;;;;5076259;28;20448;-76
2022/11/06 04:39:40;;;;;;;14.50;4.95;;;;;;;;;;5078834;28;20115;-75
2022/11/06 04:42:23;;;;;;;15.63;5.13;;;;;;;;;;5095127;28;20114;-71
2022/11/06 04:44:51;;;;;;;15.05;5.03;;;;;;;;;;5097040;28;20350;-75
2022/11/06 04:47:19;;;;;;;26.45;5.70;;;;;;;;;;5097302;28;20024;-73
2022/11/06 04:49:47;;;;;;;15.98;4.97;;;;;;;;;;5098326;28;20032;-73
2022/11/06 04:52:16;;;;;;;15.98;4.65;;;;;;;;;;5098813;28;20020;-74
2022/11/06 04:54:44;;;;;;;16.20;5.53;;;;;;;;;;5100093;28;20025;-72
2022/11/06 04:57:10;;;;;;;15.25;5.43;;;;;;;;;;5098872;28;20016;-71
2022/11/06 04:59:36;;;;;;;18.33;4.72;;;;;;;;;;5099910;28;20024;-73
2022/11/06 05:02:02;;;;;;;15.50;5.18;;;;;;;;;;5098601;28;20036;-72
2022/11/06 05:04:28;;;;;;;16.08;4.82;;;;;;;;;;5099068;28;20500;-73
2022/11/06 05:06:54;;;;;;;12.18;4.90;;;;;;;;;;5097832;28;20033;-71
2022/11/06 05:09:20;;;;;;;15.52;5.28;;;;;;;;;;5099849;28;20024;-72
2022/11/06 05:11:46;;;;;;;15.32;5.35;;;;;;;;;;5097068;28;20548;-72
2022/11/06 05:14:12;;;;;;;16.92;4.60;;;;;;;;;;5094935;28;20094;-73
2022/11/06 05:16:38;;;;;;;14.43;5.03;;;;;;;;;;5084616;28;20032;-74
2022/11/06 05:19:04;;;;;;;12.40;4.78;;;;;;;;;;5075297;28;20021;-76
2022/11/06 05:24:15;;;;;;;16.23;4.70;;;;;;;;;;5091116;28;20050;-74
2022/11/06 05:26:41;;;;;;;12.68;4.43;;;;;;;;;;5092740;28;20051;-73
2022/11/06 05:29:07;;;;;;;11.70;4.78;;;;;;;;;;5093139;28;20056;-74
2022/11/06 05:31:33;;;;;;;13.25;4.03;;;;;;;;;;5093681;28;20017;-73
2022/11/06 05:33:59;;;;;;;15.85;5.03;;;;;;;;;;5095707;28;20024;-73
2022/11/06 05:36:25;;;;;;;10.75;4.50;;;;;;;;;;5091100;28;20052;-75
2022/11/06 05:38:51;;;;;;;13.80;4.75;;;;;;;;;;5076821;28;20028;-75
2022/11/06 05:41:17;;;;;;;18.23;4.82;;;;;;;;;;5077688;28;20024;-75
2022/11/06 05:43:43;;;;;;;14.25;4.40;;;;;;;;;;5078521;28;20021;-75
2022/11/06 05:46:09;;;;;;;12.27;4.40;;;;;;;;;;5076883;28;20021;-74
2022/11/06 05:48:35;;;;;;;14.50;4.55;;;;;;;;;;5077921;28;20025;-74
2022/11/06 05:51:02;;;;;;;16.17;4.65;;;;;;;;;;5075450;28;20116;-74
2022/11/06 05:53:29;;;;;;;14.32;4.97;;;;;;;;;;5078140;28;20039;-73
2022/11/06 05:55:55;;;;;;;12.07;4.95;;;;;;;;;;5077109;28;20035;-73
2022/11/06 05:58:21;;;;;;;15.57;5.10;;;;;;;;;;5074321;28;20025;-74
2022/11/06 06:00:47;;;;;;;13.68;4.85;;;;;;;;;;5075306;28;20055;-74
2022/11/06 06:03:13;;;;;;;21.92;5.07;;;;;;;;;;5074477;28;20388;-73
2022/11/06 06:05:39;;;;;;;11.75;4.95;;;;;;;;;;5074183;28;20036;-74
2022/11/06 06:08:05;;;;;;;14.57;5.13;;;;;;;;;;5074078;28;20056;-73
2022/11/06 06:10:31;;;;;;;17.55;5.65;;;;;;;;;;5075011;28;20028;-73
2022/11/06 06:12:57;;;;;;;14.95;6.63;;;;;;;;;;5074513;28;20074;-75
2022/11/06 06:15:23;;;;;;;18.52;5.75;;;;;;;;;;5073795;28;20028;-74
2022/11/06 06:17:49;;;;;;;16.85;5.53;;;;;;;;;;5074176;28;20024;-73
2022/11/06 06:20:15;;;;;;;12.95;5.35;;;;;;;;;;5073645;28;20033;-76
2022/11/06 06:22:41;;;;;;;14.60;5.68;;;;;;;;;;5072439;28;20084;-73
2022/11/06 06:25:08;;;;;;;10.07;5.47;;;;;;;;;;5073768;28;20059;-75
2022/11/06 06:27:34;;;;;;;15.05;5.00;;;;;;;;;;5072806;28;20544;-76
2022/11/06 06:30:00;;;;;;;16.17;5.40;;;;;;;;;;5074201;28;20025;-75
2022/11/06 06:32:26;;;;;;;18.38;5.53;;;;;;;;;;5075907;28;20020;-73
2022/11/06 06:34:52;;;;;;;12.95;4.72;;;;;;;;;;5076963;28;20020;-73
2022/11/06 06:37:18;;;;;;;17.42;5.00;;;;;;;;;;5078005;28;20131;-75
2022/11/06 06:39:44;;;;;;;16.67;5.70;;;;;;;;;;5078697;28;20032;-74
2022/11/06 06:42:10;;;;;;;14.95;5.38;;;;;;;;;;5076884;28;20020;-75
2022/11/06 06:44:36;;;;;;;16.25;5.50;;;;;;;;;;5078103;28;20046;-73
2022/11/06 06:47:02;;;;;;;19.27;5.75;;;;;;;;;;5076386;28;20032;-74
2022/11/06 06:49:28;;;;;;;11.70;4.75;;;;;;;;;;5073430;28;20465;-73
2022/11/06 06:51:54;;;;;;;14.20;5.35;;;;;;;;;;5074196;28;20029;-75
2022/11/06 06:54:20;;;;;;;13.40;5.20;;;;;;;;;;5073885;28;20051;-72
2022/11/06 06:56:47;;;;;;;13.65;4.82;;;;;;;;;;5072353;28;20474;-74
2022/11/06 06:59:13;;;;;;;14.55;4.72;;;;;;;;;;5073210;28;20032;-76
2022/11/06 07:01:39;;;;;;;16.13;5.90;;;;;;;;;;5072392;28;20369;-75
2022/11/06 07:04:05;;;;;;;17.42;5.82;;;;;;;;;;5074381;28;20028;-74
2022/11/06 07:06:31;;;;;;;19.92;5.10;;;;;;;;;;5073406;28;20108;-75
2022/11/06 07:08:57;;;;;;;15.93;4.95;;;;;;;;;;5073579;28;20410;-74
2022/11/06 07:11:23;;;;;;;10.73;4.72;;;;;;;;;;5074076;28;20024;-73
2022/11/06 07:13:49;;;;;;;16.00;5.55;;;;;;;;;;5073746;28;20017;-74
2022/11/06 07:16:15;;;;;;;19.42;5.38;;;;;;;;;;5076029;28;20029;-75
2022/11/06 07:18:41;;;;;;;12.60;5.00;;;;;;;;;;5077326;28;20028;-76
2022/11/06 07:21:08;;;;;;;14.32;4.80;;;;;;;;;;5077976;28;20032;-75
2022/11/06 07:23:35;;;;;;;18.00;4.93;;;;;;;;;;5078556;28;20036;-75
2022/11/06 07:26:01;;;;;;;14.10;5.20;;;;;;;;;;5074758;28;20032;-74
2022/11/06 07:28:27;;;;;;;14.52;4.88;;;;;;;;;;5073381;28;20120;-74
2022/11/06 07:30:56;;;;;;;14.02;4.97;;;;;;;;;;5073247;28;20107;-75
2022/11/06 07:33:22;;;;;;;23.73;5.00;;;;;;;;;;5077368;28;20234;-75
2022/11/06 07:35:48;;;;;;;13.48;5.10;;;;;;;;;;5078106;28;20076;-74
2022/11/06 07:38:14;;;;;;;12.40;4.55;;;;;;;;;;5075083;28;20017;-75
2022/11/06 07:40:40;;;;;;;17.17;4.93;;;;;;;;;;5074438;28;20546;-75
2022/11/06 07:43:07;;;;;;;10.63;4.88;;;;;;;;;;5075595;28;20055;-74
2022/11/06 07:45:33;;;;;;;13.93;5.55;;;;;;;;;;5074087;28;20031;-72
2022/11/06 07:47:59;;;;;;;16.27;5.30;;;;;;;;;;5071993;28;20032;-73
2022/11/06 07:50:25;;;;;;;13.52;4.57;;;;;;;;;;5084087;28;20088;-74
2022/11/06 07:52:51;;;;;;;12.63;4.90;;;;;;;;;;5089297;28;20028;-73
2022/11/06 07:55:18;;;;;;;12.68;4.70;;;;;;;;;;5090467;28;20076;-73
2022/11/06 07:57:44;;;;;;;14.98;3.95;;;;;;;;;;5092637;28;20031;-73
2022/11/06 08:00:10;;;;;;;9.80;4.22;;;;;;;;;;5092211;28;20060;-73
2022/11/06 08:02:36;;;;;;;11.45;4.13;;;;;;;;;;5076654;28;20036;-75
2022/11/06 08:05:02;;;;;;;12.43;5.40;;;;;;;;;;5072398;28;20029;-74
2022/11/06 08:07:28;;;;;;;16.63;4.63;;;;;;;;;;5073309;28;20028;-73
2022/11/06 08:09:54;;;;;;;12.93;4.00;;;;;;;;;;5075588;28;20025;-73
2022/11/06 08:12:20;;;;;;;13.55;4.28;;;;;;;;;;5083003;28;20509;-73
2022/11/06 08:14:46;;;;;;;17.30;4.78;;;;;;;;;;5086528;28;20033;-75
2022/11/06 08:17:11;;;;;;;16.67;3.95;;;;;;;;;;5087999;28;20029;-74
2022/11/06 08:19:37;;;;;;;16.90;4.47;;;;;;;;;;5094918;28;20093;-74
2022/11/06 08:22:03;;;;;;;15.95;3.88;;;;;;;;;;5088186;28;20036;-75
2022/11/06 08:24:29;;;;;;;18.13;4.45;;;;;;;;;;5076752;28;20073;-76
2022/11/06 08:26:57;;;;;;;16.63;4.95;;;;;;;;;;5076570;28;20484;-75
2022/11/06 08:29:23;;;;;;;18.80;4.68;;;;;;;;;;5076702;28;20039;-76
2022/11/06 08:31:49;;;;;;;15.60;4.10;;;;;;;;;;5076575;28;20024;-74
2022/11/06 08:34:14;;;;;;;12.85;3.55;;;;;;;;;;5076559;28;20024;-74
2022/11/06 08:36:44;;;;;;;12.68;4.60;;;;;;;;;;5075027;28;20503;-74
2022/11/06 08:39:10;;;;;;;17.02;4.65;;;;;;;;;;5076688;28;20017;-75
2022/11/06 08:41:36;;;;;;;16.50;4.70;;;;;;;;;;5076386;28;20489;-75
2022/11/06 08:44:02;;;;;;;11.48;3.85;;;;;;;;;;5076594;28;20020;-76
2022/11/06 08:46:28;;;;;;;17.13;4.40;;;;;;;;;;5076160;28;20025;-76
2022/11/06 08:48:54;;;;;;;18.85;4.45;;;;;;;;;;5078807;28;20032;-76
2022/11/06 08:51:20;;;;;;;14.77;3.72;;;;;;;;;;5079330;28;20398;-74
2022/11/06 08:53:46;;;;;;;18.45;4.18;;;;;;;;;;5079611;28;20036;-73
2022/11/06 08:56:13;;;;;;;14.70;3.72;;;;;;;;;;5076456;28;20116;-76
2022/11/06 08:58:39;;;;;;;11.70;4.70;;;;;;;;;;5076507;28;20090;-75
2022/11/06 09:01:04;;;;;;;14.55;3.65;;;;;;;;;;5075788;28;20016;-75
2022/11/06 09:03:30;;;;;;;12.07;3.60;;;;;;;;;;5075891;28;20370;-75
2022/11/06 09:05:56;;;;;;;11.63;3.33;;;;;;;;;;5075062;28;20469;-75
2022/11/06 09:08:23;;;;;;;13.82;3.42;;;;;;;;;;5075821;28;20025;-74
2022/11/06 09:10:49;;;;;;;17.63;4.35;;;;;;;;;;5076089;28;20369;-75
2022/11/06 09:13:15;;;;;;;11.10;3.55;;;;;;;;;;5076526;28;20443;-73
2022/11/06 09:15:41;;;;;;;13.27;3.50;;;;;;;;;;5076139;28;20029;-74
2022/11/06 09:18:07;;;;;;;14.40;3.60;;;;;;;;;;5076637;28;20028;-74
2022/11/06 09:20:33;;;;;;;12.43;3.72;;;;;;;;;;5076383;28;20122;-74
2022/11/06 09:23:01;;;;;;;10.90;3.40;;;;;;;;;;5076766;28;20103;-74
2022/11/06 09:25:27;;;;;;;12.55;3.40;;;;;;;;;;5076026;28;20036;-74
2022/11/06 09:27:53;;;;;;;13.30;3.60;;;;;;;;;;5077433;28;20029;-73
2022/11/06 09:30:20;;;;;;;9.77;3.30;;;;;;;;;;5075197;28;20028;-75
2022/11/06 09:32:47;;;;;;;13.70;3.50;;;;;;;;;;5075015;28;20027;-73
2022/11/06 09:35:13;;;;;;;12.27;3.42;;;;;;;;;;5075900;28;20104;-75
2022/11/06 09:37:39;;;;;;;14.88;3.63;;;;;;;;;;5076939;28;20032;-74
2022/11/06 09:40:05;;;;;;;10.65;3.13;;;;;;;;;;5076068;28;20465;-74
2022/11/06 09:42:50;;;;;;;15.13;3.92;;;;;;;;;;5075655;28;20025;-74
2022/11/06 09:45:21;;;;;;;16.60;3.47;;;;;;;;;;5074637;28;20029;-75
2022/11/06 09:47:49;;;;;;;11.00;3.20;;;;;;;;;;5075857;28;20421;-73
2022/11/06 09:50:17;;;;;;;11.70;3.25;;;;;;;;;;5075341;28;20491;-73
2022/11/06 09:52:50;;;;;;;14.00;2.88;;;;;;;;;;5074841;28;20407;-74
2022/11/06 09:55:19;;;;;;;15.75;3.15;;;;;;;;;;5075279;28;20021;-73
2022/11/06 09:57:51;;;;;;;14.50;3.30;;;;;;;;;;5073869;28;20044;-74
2022/11/06 10:00:17;;;;;;;17.15;3.10;;;;;;;;;;5077039;28;20385;-73
2022/11/06 10:02:50;;;;;;;7.60;2.55;;;;;;;;;;5075319;28;20104;-74
2022/11/06 10:05:27;;;;;;;10.75;2.80;;;;;;;;;;5075221;28;20100;-75
2022/11/06 10:07:57;;;;;;;10.63;3.17;;;;;;;;;;5076257;28;20123;-73
2022/11/06 10:10:28;;;;;;;10.95;3.17;;;;;;;;;;5077248;28;20033;-73
2022/11/06 10:13:14;;;;;;;11.02;2.88;;;;;;;;;;5076678;28;20024;-74
2022/11/06 10:15:48;;;;;;;13.68;2.80;;;;;;;;;;5080235;28;20029;-75
2022/11/06 10:18:30;;;;;;;10.20;3.08;;;;;;;;;;5077104;28;20025;-75
2022/11/06 10:21:07;;;;;;;16.02;3.10;;;;;;;;;;5075001;28;20031;-75
2022/11/06 10:23:45;;;;;;;12.43;2.60;;;;;;;;;;5075060;28;20607;-73
2022/11/06 10:26:14;;;;;;;12.02;3.28;;;;;;;;;;5074223;28;20477;-73
2022/11/06 10:28:53;;;;;;;10.18;2.33;;;;;;;;;;5074227;28;20025;-76
2022/11/06 10:31:18;;;;;;;9.45;2.55;;;;;;;;;;5074120;28;20025;-75
2022/11/06 10:33:50;;;;;;;8.00;2.80;;;;;;;;;;5073285;28;20035;-75
2022/11/06 10:36:20;;;;;;;12.38;2.70;;;;;;;;;;5074559;28;20032;-75
2022/11/06 10:38:47;;;;;;;9.45;2.78;;;;;;;;;;5073166;28;20164;-74
2022/11/06 10:41:25;;;;;;;12.10;2.60;;;;;;;;;;5074121;28;20028;-74
2022/11/06 10:43:58;;;;;;;14.20;2.55;;;;;;;;;;5078681;28;20107;-74
2022/11/06 10:46:35;;;;;;;16.20;2.72;;;;;;;;;;5079810;28;20035;-74
2022/11/06 10:49:04;;;;;;;10.35;2.90;;;;;;;;;;5079238;28;20020;-75
2022/11/06 10:51:36;;;;;;;9.40;2.58;;;;;;;;;;5078207;28;20025;-74
2022/11/06 10:54:25;;;;;;;13.10;2.53;;;;;;;;;;5077982;28;20020;-74
2022/11/06 10:57:06;;;;;;;7.05;2.55;;;;;;;;;;5069168;28;20036;-76
2022/11/06 10:59:32;;;;;;;9.23;2.83;;;;;;;;;;5073849;28;20028;-74
2022/11/06 11:01:58;;;;;;;10.18;2.38;;;;;;;;;;5074509;28;20085;-76
2022/11/06 11:04:24;;;;;;;10.32;2.33;;;;;;;;;;5074908;28;20025;-72
2022/11/06 11:06:50;;;;;;;8.40;2.47;;;;;;;;;;5073837;28;20067;-74
2022/11/06 11:09:30;;;;;;;10.40;2.72;;;;;;;;;;5076502;28;20029;-73
2022/11/06 11:11:56;;;;;;;7.43;2.50;;;;;;;;;;5078599;28;20016;-74
2022/11/06 11:14:24;;;;;;;7.05;2.30;;;;;;;;;;5077567;28;20048;-75
2022/11/06 11:16:50;;;;;;;8.68;2.60;;;;;;;;;;5074752;28;20020;-75
2022/11/06 11:19:32;;;;;;;9.07;2.28;;;;;;;;;;5076596;28;20021;-75
2022/11/06 11:21:59;;;;;;;7.03;2.30;;;;;;;;;;5080981;28;20078;-75
2022/11/06 11:24:26;;;;;;;10.23;2.70;;;;;;;;;;5080676;28;20035;-74
2022/11/06 11:26:53;;;;;;;11.88;2.92;;;;;;;;;;5092495;28;20067;-72
2022/11/06 11:29:24;;;;;;;11.70;3.60;;;;;;;;;;5089147;28;20028;-75
2022/11/06 11:31:53;;;;;;;5.70;2.00;;;;;;;;;;5084719;28;20029;-75
2022/11/06 11:34:21;;;;;;;9.10;2.55;;;;;;;;;;5091433;28;20025;-74
2022/11/06 11:37:00;;;;;;;16.50;2.55;;;;;;;;;;5088581;28;20024;-75
2022/11/06 11:39:30;;;;;;;7.30;2.10;;;;;;;;;;5096161;28;20031;-74
2022/11/06 11:42:35;;;;;;;6.95;1.85;;;;;;;;;;5095704;28;20028;-75
2022/11/06 11:45:10;;;;;;;10.15;2.13;;;;;;;;;;5054433;28;20068;-74
2022/11/06 11:47:39;;;;;;;9.35;2.65;;;;;;;;;;5053933;28;20085;-74
2022/11/06 11:50:17;;;;;;;9.15;2.22;;;;;;;;;;5077042;28;20187;-75
2022/11/06 11:52:44;;;;;;;7.57;2.10;;;;;;;;;;5095897;28;20050;-74
2022/11/06 11:55:18;;;;;;;5.75;1.80;;;;;;;;;;5096609;28;20068;-74
2022/11/06 11:57:45;;;;;;;8.40;1.87;;;;;;;;;;5096658;28;20016;-73
2022/11/06 12:00:15;;;;;;;5.93;1.63;;;;;;;;;;5096607;28;20013;-73
2022/11/06 12:02:56;;;;;;;10.30;2.40;;;;;;;;;;5084228;28;20025;-75
2022/11/06 12:05:23;;;;;;;6.07;1.65;;;;;;;;;;5075115;28;20024;-75
2022/11/06 12:07:52;;;;;;;7.47;2.00;;;;;;;;;;5075227;28;20399;-74
2022/11/06 12:10:24;;;;;;;6.00;1.70;;;;;;;;;;5075566;28;20036;-73
2022/11/06 12:12:51;;;;;;;8.68;2.58;;;;;;;;;;5076332;28;20104;-75
2022/11/06 12:15:21;;;;;;;8.55;2.17;;;;;;;;;;5076731;28;20017;-73
2022/11/06 12:17:52;;;;;;;10.30;1.80;;;;;;;;;;5076021;28;20017;-75
2022/11/06 12:20:20;;;;;;;8.30;1.85;;;;;;;;;;5077640;28;20035;-75
2022/11/06 12:22:47;;;;;;;6.50;1.83;;;;;;;;;;5074116;28;20072;-75
2022/11/06 12:25:16;;;;;;;8.70;2.05;;;;;;;;;;5073606;28;20044;-75
2022/11/06 12:27:45;;;;;;;8.68;1.65;;;;;;;;;;5074404;28;20044;-74
2022/11/06 12:30:17;;;;;;;7.93;1.90;;;;;;;;;;5075331;28;20428;-74
2022/11/06 12:32:52;;;;;;;12.70;2.30;;;;;;;;;;5075458;28;20045;-74
2022/11/06 12:35:27;;;;;;;12.38;2.25;;;;;;;;;;5075361;28;20386;-73
2022/11/06 12:38:02;;;;;;;9.23;2.38;;;;;;;;;;5075853;28;20026;-74
2022/11/06 12:40:29;;;;;;;13.68;2.60;;;;;;;;;;5083935;28;20029;-75
2022/11/06 12:43:12;;;;;;;7.93;2.17;;;;;;;;;;5081082;28;20028;-74
2022/11/06 12:45:38;;;;;;;7.97;2.28;;;;;;;;;;5080480;28;20037;-74
2022/11/06 12:48:12;;;;;;;8.68;2.08;;;;;;;;;;5082573;28;20414;-74
2022/11/06 12:50:44;;;;;;;7.57;2.00;;;;;;;;;;5082808;28;20054;-75
2022/11/06 12:53:15;;;;;;;8.05;2.13;;;;;;;;;;5082286;28;20448;-75
2022/11/06 12:55:46;;;;;;;8.07;2.17;;;;;;;;;;5087130;28;20039;-73
2022/11/06 12:58:18;;;;;;;10.38;2.00;;;;;;;;;;5091024;28;20013;-75
2022/11/06 13:00:47;;;;;;;6.55;2.05;;;;;;;;;;5089956;28;20029;-76
2022/11/06 13:03:13;;;;;;;11.55;2.40;;;;;;;;;;5090963;28;20051;-74
2022/11/06 13:05:42;;;;;;;8.68;2.55;;;;;;;;;;5088329;28;20028;-74
2022/11/06 13:08:25;;;;;;;8.32;2.35;;;;;;;;;;5089727;28;20067;-75
2022/11/06 13:10:59;;;;;;;9.38;2.40;;;;;;;;;;5078420;28;20485;-75
2022/11/06 13:13:36;;;;;;;5.05;2.42;;;;;;;;;;5077333;28;20040;-75
2022/11/06 13:16:22;;;;;;;9.80;2.55;;;;;;;;;;5075964;28;20115;-77
2022/11/06 13:18:53;;;;;;;8.48;2.30;;;;;;;;;;5055683;28;20123;-74
2022/11/06 13:21:19;;;;;;;8.88;2.80;;;;;;;;;;5078067;28;20025;-77
2022/11/06 13:23:48;;;;;;;9.45;2.90;;;;;;;;;;5078122;28;20032;-75
2022/11/06 13:26:23;;;;;;;11.32;3.35;;;;;;;;;;5089298;22;20040;-77
2022/11/06 13:28:55;;;;;;;6.18;1.98;;;;;;;;;;5058587;28;20025;-77
2022/11/06 13:31:21;;;;;;;10.43;2.53;;;;;;;;;;5058802;28;20026;-77
2022/11/06 13:33:50;;;;;;;9.32;2.47;;;;;;;;;;5059599;28;20029;-78
2022/11/06 13:36:17;;;;;;;7.15;2.50;;;;;;;;;;5058832;28;20053;-78
2022/11/06 13:38:55;;;;;;;7.65;2.58;;;;;;;;;;5058679;28;20033;-77
2022/11/06 13:41:22;;;;;;;6.07;2.45;;;;;;;;;;5059206;28;20032;-77
2022/11/06 13:43:52;;;;;;;7.57;2.50;;;;;;;;;;5058998;28;20033;-77
2022/11/06 13:46:18;;;;;;;9.57;3.10;;;;;;;;;;5060923;28;20102;-78
2022/11/06 13:49:07;;;;;;;8.82;2.58;;;;;;;;;;5057616;28;20020;-77
2022/11/06 13:51:50;;;;;;;6.97;2.10;;;;;;;;;;5052553;28;20104;-78
2022/11/06 13:54:25;;;;;;;5.13;1.85;;;;;;;;;;5058883;28;20021;-76
2022/11/06 13:57:05;;;;;;;9.52;2.38;;;;;;;;;;5057771;28;20048;-77
2022/11/06 13:59:41;;;;;;;10.02;2.72;;;;;;;;;;5058359;28;20504;-76
2022/11/06 14:02:26;;;;;;;9.00;2.67;;;;;;;;;;5058504;28;20028;-77
2022/11/06 14:05:02;;;;;;;10.80;2.28;;;;;;;;;;5059745;28;20101;-76
2022/11/06 14:07:29;;;;;;;8.15;2.40;;;;;;;;;;5064243;28;20039;-77
2022/11/06 14:09:55;;;;;;;8.13;2.17;;;;;;;;;;5062468;28;20072;-77
2022/11/06 14:12:21;;;;;;;7.15;2.70;;;;;;;;;;5060589;28;20047;-76
2022/11/06 14:14:48;;;;;;;10.48;2.55;;;;;;;;;;5057291;28;20025;-77
2022/11/06 14:17:17;;;;;;;10.57;2.92;;;;;;;;;;5055484;28;20032;-77
2022/11/06 14:19:49;;;;;;;9.15;2.75;;;;;;;;;;5056170;28;20053;-77
2022/11/06 14:22:37;;;;;;;6.25;2.40;;;;;;;;;;5059274;28;20064;-77
2022/11/06 14:25:22;;;;;;;9.35;2.53;;;;;;;;;;5055458;28;20083;-78
2022/11/06 14:27:48;;;;;;;11.45;2.75;;;;;;;;;;5058062;28;20119;-77
2022/11/06 14:30:13;;;;;;;5.50;2.28;;;;;;;;;;5056031;28;20064;-78
2022/11/06 14:32:41;;;;;;;7.82;2.42;;;;;;;;;;5054238;28;20430;-77
2022/11/06 14:35:26;;;;;;;9.15;2.78;;;;;;;;;;5055941;28;20037;-76
2022/11/06 14:37:52;;;;;;;11.77;5.20;;;;;;;;;;5055908;28;20067;-77
2022/11/06 14:40:30;;;;;;;10.85;3.05;;;;;;;;;;5056096;28;20389;-77
2022/11/06 14:42:56;;;;;;;9.18;3.22;;;;;;;;;;5059574;28;20025;-77
2022/11/06 14:45:22;;;;;;;8.20;3.20;;;;;;;;;;5060847;28;20036;-77
2022/11/06 14:47:53;;;;;;;6.95;2.63;;;;;;;;;;5057096;28;20037;-77
2022/11/06 14:50:19;;;;;;;6.53;2.30;;;;;;;;;;5057275;28;20029;-76
2022/11/06 14:52:46;;;;;;;9.90;3.65;;;;;;;;;;5057372;28;20032;-77
2022/11/06 14:55:31;;;;;;;5.70;2.40;;;;;;;;;;5059535;28;20029;-77
2022/11/06 14:58:00;;;;;;;9.93;3.40;;;;;;;;;;5071351;28;20017;-76
2022/11/06 15:00:29;;;;;;;13.93;4.03;;;;;;;;;;5077366;28;20089;-76